Time;durP1;ratioP1;P1;durP2;ratioP2;P2;SDS_P1;SDS_P2;PMS_P1;PMS_P2;Temp;Humidity;BMP_temperature;BMP_pressure;BME280_temperature;BME280_humidity;BME280_pressure;Samples;Min_cycle;Max_cycle;Signal;HPM_P1;HPM_P2
2023/08/04 00:01:27;;;;;;;10.43;4.78;;;16.60;99.90;;;;;;5069938;28;20199;-82
2023/08/04 00:03:54;;;;;;;11.13;5.03;;;16.60;99.90;;;;;;5069731;28;20238;-82
2023/08/04 00:06:20;;;;;;;10.35;4.45;;;16.60;99.90;;;;;;5068402;28;20227;-82
2023/08/04 00:08:47;;;;;;;8.50;4.03;;;16.60;99.90;;;;;;5069144;28;20295;-82
2023/08/04 00:11:14;;;;;;;8.85;4.45;;;16.50;99.90;;;;;;5069542;28;20249;-82
2023/08/04 00:13:41;;;;;;;7.78;4.32;;;16.60;99.90;;;;;;5069339;28;20221;-82
2023/08/04 00:16:10;;;;;;;12.60;4.78;;;16.50;99.90;;;;;;5066781;28;20211;-82
2023/08/04 00:18:37;;;;;;;12.07;4.93;;;16.50;99.90;;;;;;5068852;28;20273;-81
2023/08/04 00:21:08;;;;;;;10.65;4.75;;;16.60;99.90;;;;;;5065638;28;20209;-81
2023/08/04 00:23:35;;;;;;;8.50;4.97;;;16.40;99.90;;;;;;5069061;28;20183;-81
2023/08/04 00:26:02;;;;;;;14.38;4.57;;;16.40;99.90;;;;;;5069348;28;20203;-81
2023/08/04 00:28:29;;;;;;;10.70;4.90;;;16.40;99.90;;;;;;5068282;28;20246;-82
2023/08/04 00:30:56;;;;;;;12.25;4.75;;;16.30;99.90;;;;;;5076951;28;20293;-81
2023/08/04 00:33:24;;;;;;;12.43;5.18;;;16.30;99.90;;;;;;5069084;28;20210;-82
2023/08/04 00:35:51;;;;;;;6.65;4.80;;;16.30;99.90;;;;;;5069301;28;20289;-83
2023/08/04 00:38:17;;;;;;;11.68;4.60;;;16.30;99.90;;;;;;5067815;28;20302;-81
2023/08/04 00:40:44;;;;;;;10.82;4.22;;;16.30;99.90;;;;;;5069085;28;20230;-82
2023/08/04 00:43:12;;;;;;;8.50;4.97;;;16.10;99.90;;;;;;5067334;28;20262;-82
2023/08/04 00:45:39;;;;;;;7.93;4.32;;;16.00;99.90;;;;;;5068680;28;20211;-82
2023/08/04 00:48:06;;;;;;;8.40;5.15;;;16.00;99.90;;;;;;5067342;28;20225;-82
2023/08/04 00:50:35;;;;;;;9.07;4.10;;;16.00;99.90;;;;;;5068807;28;20231;-81
2023/08/04 00:53:02;;;;;;;8.18;4.25;;;16.10;99.90;;;;;;5067596;28;20243;-82
2023/08/04 00:55:29;;;;;;;7.63;4.07;;;16.00;99.90;;;;;;5067194;28;20229;-82
2023/08/04 00:57:57;;;;;;;6.47;4.10;;;16.00;99.90;;;;;;5068435;28;20234;-82
2023/08/04 01:00:24;;;;;;;8.65;4.00;;;16.00;99.90;;;;;;5067560;28;20206;-82
2023/08/04 01:02:51;;;;;;;6.32;3.97;;;16.00;99.90;;;;;;5068923;28;20260;-82
2023/08/04 01:05:18;;;;;;;12.23;4.00;;;16.00;99.90;;;;;;5068196;28;20203;-82
2023/08/04 01:07:57;;;;;;;9.48;4.15;;;16.00;99.90;;;;;;5067213;28;20237;-82
2023/08/04 01:10:30;;;;;;;8.57;4.18;;;15.90;99.90;;;;;;5067569;28;20205;-82
2023/08/04 01:13:00;;;;;;;9.20;4.63;;;16.00;99.90;;;;;;5067511;28;20290;-82
2023/08/04 01:15:29;;;;;;;10.10;4.07;;;16.00;99.90;;;;;;5065758;28;20215;-82
2023/08/04 01:17:56;;;;;;;9.18;3.92;;;15.90;99.90;;;;;;5067064;28;20291;-82
2023/08/04 01:20:23;;;;;;;14.10;5.00;;;15.90;99.90;;;;;;5064910;28;20214;-82
2023/08/04 01:22:51;;;;;;;11.98;4.10;;;15.80;99.90;;;;;;5074491;28;20274;-82
2023/08/04 01:25:19;;;;;;;8.35;4.43;;;15.80;99.90;;;;;;5065234;28;20215;-82
2023/08/04 01:27:51;;;;;;;11.57;5.22;;;16.00;99.90;;;;;;5066204;28;20857;-81
2023/08/04 01:30:20;;;;;;;11.30;4.47;;;15.90;99.90;;;;;;5066804;28;20213;-82
2023/08/04 01:32:47;;;;;;;8.43;3.72;;;15.80;99.90;;;;;;5057796;28;20727;-82
2023/08/04 01:35:15;;;;;;;9.02;4.25;;;15.70;99.90;;;;;;5075219;28;20590;-81
2023/08/04 01:37:43;;;;;;;6.30;3.80;;;15.70;99.90;;;;;;5066684;28;20227;-82
2023/08/04 01:40:12;;;;;;;6.00;3.85;;;15.70;99.90;;;;;;5066672;28;20276;-81
2023/08/04 01:42:39;;;;;;;9.00;4.28;;;15.70;99.90;;;;;;5067100;28;20237;-82
2023/08/04 01:45:07;;;;;;;10.77;4.95;;;15.60;99.90;;;;;;5067156;28;20286;-82
2023/08/04 01:47:34;;;;;;;10.13;4.40;;;15.70;99.90;;;;;;5066616;28;20254;-81
2023/08/04 01:50:02;;;;;;;7.35;4.03;;;15.80;99.90;;;;;;5060968;28;20262;-82
2023/08/04 01:52:29;;;;;;;11.70;4.72;;;15.60;99.90;;;;;;5067245;28;20329;-83
2023/08/04 01:54:56;;;;;;;12.70;3.95;;;15.60;99.90;;;;;;5066515;28;20298;-82
2023/08/04 01:57:24;;;;;;;7.72;4.00;;;15.60;99.90;;;;;;5065646;28;20245;-82
2023/08/04 01:59:51;;;;;;;9.02;4.25;;;15.60;99.90;;;;;;5067010;28;20331;-82
2023/08/04 02:02:18;;;;;;;9.27;3.75;;;15.60;99.90;;;;;;5074841;28;20293;-81
2023/08/04 02:04:45;;;;;;;8.75;3.80;;;15.60;99.90;;;;;;5064742;28;20582;-82
2023/08/04 02:07:11;;;;;;;9.88;3.92;;;15.60;99.90;;;;;;5065790;28;20652;-82
2023/08/04 02:09:38;;;;;;;10.65;3.70;;;15.70;99.90;;;;;;5066739;28;20206;-82
2023/08/04 02:12:06;;;;;;;9.50;4.15;;;15.60;99.90;;;;;;5065987;28;20305;-82
2023/08/04 02:14:34;;;;;;;9.15;4.97;;;15.60;99.90;;;;;;5065940;28;20207;-81
2023/08/04 02:17:01;;;;;;;8.48;3.88;;;15.60;99.90;;;;;;5065680;28;20207;-81
2023/08/04 02:19:28;;;;;;;7.55;4.57;;;15.60;99.90;;;;;;5064185;28;20194;-81
2023/08/04 02:21:55;;;;;;;10.43;4.43;;;15.60;99.90;;;;;;5063653;28;20657;-82
2023/08/04 02:24:21;;;;;;;8.13;4.22;;;15.70;99.90;;;;;;5065274;28;20294;-82
2023/08/04 02:26:48;;;;;;;7.78;4.47;;;15.50;99.90;;;;;;5065627;28;20271;-82
2023/08/04 02:29:15;;;;;;;12.25;4.72;;;15.50;99.90;;;;;;5065487;28;20203;-82
2023/08/04 02:31:43;;;;;;;11.82;4.90;;;15.40;99.90;;;;;;5066386;28;20223;-82
2023/08/04 02:34:10;;;;;;;8.55;4.50;;;15.50;99.90;;;;;;5065880;28;20209;-82
2023/08/04 02:36:37;;;;;;;12.20;5.38;;;15.40;99.90;;;;;;5060435;28;20195;-81
2023/08/04 02:39:04;;;;;;;10.18;5.13;;;15.40;99.90;;;;;;5064835;28;20284;-82
2023/08/04 02:41:31;;;;;;;14.55;5.00;;;15.30;99.90;;;;;;5062318;28;20221;-82
2023/08/04 02:44:00;;;;;;;8.80;5.05;;;15.30;99.90;;;;;;5053338;28;20271;-82
2023/08/04 02:46:26;;;;;;;12.50;5.20;;;15.30;99.90;;;;;;5059157;28;20211;-82
2023/08/04 02:48:56;;;;;;;9.07;4.75;;;15.20;99.90;;;;;;5064944;28;20254;-82
2023/08/04 02:51:22;;;;;;;9.55;4.70;;;15.30;99.90;;;;;;5061167;28;20267;-82
2023/08/04 02:53:51;;;;;;;10.50;5.13;;;15.30;99.90;;;;;;5073625;28;20599;-82
2023/08/04 02:56:19;;;;;;;11.57;4.70;;;15.30;99.90;;;;;;5064175;28;20262;-82
2023/08/04 02:58:47;;;;;;;14.30;5.68;;;15.40;99.90;;;;;;5065068;28;20236;-81
2023/08/04 03:01:15;;;;;;;9.23;4.47;;;15.30;99.90;;;;;;5065222;28;20230;-82
2023/08/04 03:03:42;;;;;;;8.40;4.43;;;15.30;99.90;;;;;;5065030;28;20202;-84
2023/08/04 03:06:10;;;;;;;10.73;4.95;;;15.30;99.90;;;;;;5065558;28;20720;-83
2023/08/04 03:08:37;;;;;;;10.23;4.95;;;15.40;99.90;;;;;;5061747;28;20310;-82
2023/08/04 03:11:09;;;;;;;11.68;4.95;;;15.30;99.90;;;;;;5059384;28;20268;-82
2023/08/04 03:13:36;;;;;;;12.73;5.18;;;15.40;99.90;;;;;;5065435;28;20270;-82
2023/08/04 03:16:02;;;;;;;9.23;4.90;;;15.30;99.90;;;;;;5065597;28;20263;-81
2023/08/04 03:18:29;;;;;;;8.90;4.95;;;15.30;99.90;;;;;;5065295;28;20310;-82
2023/08/04 03:20:56;;;;;;;10.48;4.97;;;15.30;99.90;;;;;;5069823;28;20203;-81
2023/08/04 03:23:24;;;;;;;10.85;5.20;;;15.30;99.90;;;;;;5069709;28;20226;-82
2023/08/04 03:25:51;;;;;;;10.10;4.78;;;15.20;99.90;;;;;;5067734;28;20266;-81
2023/08/04 03:28:18;;;;;;;11.05;5.10;;;15.30;99.90;;;;;;5069145;28;20250;-81
2023/08/04 03:30:45;;;;;;;12.85;5.05;;;15.30;99.90;;;;;;5069160;28;20203;-82
2023/08/04 03:33:12;;;;;;;8.07;5.63;;;15.20;99.90;;;;;;5070096;28;20225;-83
2023/08/04 03:35:38;;;;;;;13.52;4.85;;;15.30;99.90;;;;;;5067990;28;20262;-82
2023/08/04 03:38:06;;;;;;;10.65;4.18;;;15.30;99.90;;;;;;5073644;28;20234;-82
2023/08/04 03:40:35;;;;;;;11.02;4.93;;;15.30;99.90;;;;;;5075199;28;20988;-81
2023/08/04 03:43:02;;;;;;;6.78;4.60;;;15.30;99.90;;;;;;5068385;28;20226;-81
2023/08/04 03:45:29;;;;;;;9.13;4.88;;;15.30;99.90;;;;;;5068969;28;20637;-81
2023/08/04 03:47:55;;;;;;;8.77;4.10;;;15.30;99.90;;;;;;5068247;28;20242;-81
2023/08/04 03:50:36;;;;;;;9.43;4.72;;;15.30;99.90;;;;;;5066876;28;20238;-82
2023/08/04 03:53:03;;;;;;;10.30;3.83;;;15.40;99.90;;;;;;5058858;28;20219;-82
2023/08/04 03:55:30;;;;;;;5.88;4.18;;;15.30;99.90;;;;;;5063928;28;20207;-82
2023/08/04 03:57:58;;;;;;;7.53;3.90;;;15.30;99.90;;;;;;5066492;28;20219;-82
2023/08/04 04:00:25;;;;;;;10.38;4.80;;;15.20;99.90;;;;;;5067575;28;20195;-81
2023/08/04 04:02:52;;;;;;;14.23;8.00;;;15.30;99.90;;;;;;5066816;28;20227;-82
2023/08/04 04:05:19;;;;;;;7.93;3.83;;;15.30;99.90;;;;;;5066910;28;20238;-82
2023/08/04 04:07:45;;;;;;;10.63;3.60;;;15.20;99.90;;;;;;5066120;28;20727;-82
2023/08/04 04:10:12;;;;;;;9.50;4.10;;;15.20;99.90;;;;;;5067304;28;20286;-84
2023/08/04 04:12:39;;;;;;;13.18;4.55;;;15.30;99.90;;;;;;5065619;28;20257;-83
2023/08/04 04:15:09;;;;;;;5.53;4.07;;;15.30;99.90;;;;;;5066616;28;20211;-82
2023/08/04 04:17:36;;;;;;;10.63;4.68;;;15.30;99.90;;;;;;5065641;28;20305;-80
2023/08/04 04:20:03;;;;;;;10.57;4.22;;;15.30;99.90;;;;;;5066858;28;20281;-84
2023/08/04 04:22:30;;;;;;;10.52;4.35;;;15.30;99.90;;;;;;5066177;28;20211;-82
2023/08/04 04:24:57;;;;;;;13.38;5.15;;;15.30;99.90;;;;;;5067910;28;20195;-83
2023/08/04 04:27:24;;;;;;;6.07;4.32;;;15.30;99.90;;;;;;5067333;28;20219;-83
2023/08/04 04:29:51;;;;;;;9.52;5.18;;;15.10;99.90;;;;;;5063798;28;20231;-82
2023/08/04 04:32:19;;;;;;;9.18;5.15;;;15.20;99.90;;;;;;5067050;28;20217;-82
2023/08/04 04:34:46;;;;;;;8.23;4.38;;;15.30;99.90;;;;;;5058864;28;20191;-82
2023/08/04 04:37:13;;;;;;;11.73;4.93;;;15.40;99.90;;;;;;5066290;28;20219;-82
2023/08/04 04:39:40;;;;;;;10.27;4.28;;;15.30;99.90;;;;;;5066100;28;20215;-84
2023/08/04 04:42:07;;;;;;;9.80;4.78;;;15.30;99.90;;;;;;5067197;28;20274;-82
2023/08/04 04:44:34;;;;;;;11.80;4.13;;;15.30;99.90;;;;;;5065655;28;20211;-81
2023/08/04 04:47:01;;;;;;;13.18;5.10;;;15.40;99.90;;;;;;5064718;28;20210;-83
2023/08/04 04:49:29;;;;;;;8.98;4.47;;;15.40;99.90;;;;;;5065857;28;20209;-81
2023/08/04 04:51:56;;;;;;;9.50;4.40;;;15.50;99.90;;;;;;5065494;28;20195;-83
2023/08/04 04:54:23;;;;;;;16.77;8.13;;;15.40;99.90;;;;;;5065414;28;20223;-83
2023/08/04 04:56:50;;;;;;;15.85;5.68;;;15.40;99.90;;;;;;5064756;28;20266;-82
2023/08/04 04:59:17;;;;;;;8.35;4.82;;;15.40;99.90;;;;;;5059683;28;20213;-82
2023/08/04 05:01:44;;;;;;;11.15;4.95;;;15.40;99.90;;;;;;5060177;28;20215;-83
2023/08/04 05:04:11;;;;;;;13.18;5.35;;;15.50;99.90;;;;;;5058354;28;20203;-83
2023/08/04 05:06:40;;;;;;;11.32;5.35;;;15.50;99.90;;;;;;5058703;28;20226;-83
2023/08/04 05:09:08;;;;;;;7.07;4.97;;;15.60;99.90;;;;;;5055122;28;20298;-82
2023/08/04 05:11:35;;;;;;;12.45;5.40;;;15.60;99.90;;;;;;5054919;28;20207;-82
2023/08/04 05:14:02;;;;;;;11.98;5.03;;;15.60;99.90;;;;;;5060456;28;20219;-84
2023/08/04 05:16:29;;;;;;;12.55;5.80;;;15.60;99.90;;;;;;5058878;28;20204;-82
2023/08/04 05:18:56;;;;;;;10.32;4.97;;;15.70;99.90;;;;;;5061743;28;20227;-83
2023/08/04 05:21:23;;;;;;;8.48;5.50;;;15.70;99.90;;;;;;5054886;28;20646;-82
2023/08/04 05:23:52;;;;;;;11.27;5.53;;;15.70;99.90;;;;;;5057554;28;20290;-82
2023/08/04 05:26:18;;;;;;;9.82;5.47;;;15.70;99.90;;;;;;5060118;28;20289;-82
2023/08/04 05:28:45;;;;;;;11.20;5.47;;;15.70;99.90;;;;;;5053901;28;20227;-82
2023/08/04 05:31:12;;;;;;;9.40;5.43;;;15.70;99.90;;;;;;5058090;28;20224;-82
2023/08/04 05:33:39;;;;;;;8.02;4.60;;;15.70;99.90;;;;;;5053719;28;20263;-82
2023/08/04 05:36:06;;;;;;;8.90;4.75;;;15.70;99.90;;;;;;5054980;28;20727;-82
2023/08/04 05:38:33;;;;;;;13.25;6.03;;;15.80;99.90;;;;;;5059481;28;20239;-82
2023/08/04 05:41:02;;;;;;;12.77;5.32;;;15.80;99.90;;;;;;5058265;28;20211;-82
2023/08/04 05:43:29;;;;;;;7.05;5.13;;;15.90;99.90;;;;;;5056814;28;20207;-82
2023/08/04 05:46:02;;;;;;;6.00;4.68;;;15.80;99.90;;;;;;5053099;28;20290;-81
2023/08/04 05:48:29;;;;;;;8.13;4.80;;;15.90;99.90;;;;;;5055683;28;20234;-83
2023/08/04 05:50:56;;;;;;;11.57;5.32;;;16.00;99.90;;;;;;5048790;28;20202;-82
2023/08/04 05:53:23;;;;;;;11.35;5.03;;;16.00;99.90;;;;;;5058948;28;20638;-81
2023/08/04 05:55:50;;;;;;;5.93;4.43;;;16.00;99.90;;;;;;5050206;28;20200;-82
2023/08/04 05:58:18;;;;;;;8.25;5.18;;;16.00;99.90;;;;;;5056256;28;20277;-81
2023/08/04 06:00:46;;;;;;;7.20;5.45;;;16.10;99.90;;;;;;5064273;28;20340;-82
2023/08/04 06:03:13;;;;;;;7.28;4.93;;;16.10;99.90;;;;;;5055493;28;20289;-82
2023/08/04 06:05:40;;;;;;;8.55;5.30;;;16.20;99.90;;;;;;5059405;28;20237;-81
2023/08/04 06:08:06;;;;;;;10.70;4.80;;;16.20;99.90;;;;;;5054733;28;20231;-79
2023/08/04 06:10:34;;;;;;;8.60;4.45;;;16.20;99.90;;;;;;5053990;28;20247;-80
2023/08/04 06:13:02;;;;;;;9.13;4.85;;;16.20;99.90;;;;;;5060077;28;20226;-81
2023/08/04 06:15:30;;;;;;;9.02;5.20;;;16.30;99.90;;;;;;5056639;28;20263;-82
2023/08/04 06:17:57;;;;;;;18.20;11.50;;;16.30;99.90;;;;;;5053975;28;20233;-82
2023/08/04 06:20:24;;;;;;;14.32;6.20;;;16.30;99.90;;;;;;5051341;28;20204;-82
2023/08/04 06:22:51;;;;;;;12.38;6.20;;;16.30;99.90;;;;;;5061652;28;20207;-82
2023/08/04 06:25:18;;;;;;;11.18;5.50;;;16.50;99.90;;;;;;5059550;28;20286;-80
2023/08/04 06:27:44;;;;;;;10.38;5.38;;;16.50;99.90;;;;;;5059551;28;20227;-81
2023/08/04 06:30:11;;;;;;;7.57;4.95;;;16.50;99.90;;;;;;5054690;28;20195;-81
2023/08/04 06:32:40;;;;;;;9.45;5.07;;;16.60;99.90;;;;;;5055006;28;20213;-80
2023/08/04 06:35:08;;;;;;;10.35;4.28;;;16.70;99.90;;;;;;5055445;28;20198;-80
2023/08/04 06:37:35;;;;;;;6.72;4.10;;;16.70;99.90;;;;;;5054155;28;20235;-81
2023/08/04 06:40:03;;;;;;;7.95;4.65;;;16.70;99.90;;;;;;5041358;28;20206;-81
2023/08/04 06:42:30;;;;;;;8.00;4.80;;;16.80;99.90;;;;;;5039928;28;20214;-81
2023/08/04 06:44:57;;;;;;;7.45;4.47;;;17.00;99.90;;;;;;5041760;28;20222;-80
2023/08/04 06:47:23;;;;;;;9.48;4.38;;;17.00;99.90;;;;;;5054241;28;20317;-81
2023/08/04 06:49:52;;;;;;;9.63;3.67;;;17.00;99.90;;;;;;5052131;28;20217;-80
2023/08/04 06:52:18;;;;;;;5.40;3.90;;;17.10;99.90;;;;;;5053238;28;20254;-80
2023/08/04 06:54:45;;;;;;;5.50;4.18;;;17.10;99.90;;;;;;5045766;28;20232;-80
2023/08/04 06:57:12;;;;;;;6.20;3.72;;;17.10;99.90;;;;;;5048313;28;20719;-81
2023/08/04 06:59:39;;;;;;;6.07;3.55;;;17.20;99.90;;;;;;5053113;28;20213;-81
2023/08/04 07:02:06;;;;;;;5.35;3.53;;;17.40;99.90;;;;;;5041498;28;20203;-81
2023/08/04 07:04:33;;;;;;;8.07;4.40;;;17.50;99.90;;;;;;5048623;28;20203;-81
2023/08/04 07:07:01;;;;;;;5.50;3.58;;;17.40;99.90;;;;;;5052181;28;20213;-80
2023/08/04 07:09:28;;;;;;;8.23;4.00;;;17.50;99.90;;;;;;5045572;28;20561;-80
2023/08/04 07:11:55;;;;;;;6.90;4.07;;;17.30;99.90;;;;;;5043030;28;20203;-81
2023/08/04 07:14:21;;;;;;;5.93;3.58;;;17.40;99.90;;;;;;5046591;28;20274;-81
2023/08/04 07:16:48;;;;;;;11.20;4.18;;;17.40;99.90;;;;;;5042703;28;20218;-81
2023/08/04 07:19:16;;;;;;;5.43;3.80;;;17.40;99.90;;;;;;5052253;28;20223;-81
2023/08/04 07:21:43;;;;;;;6.40;3.60;;;17.60;99.90;;;;;;5051629;28;20662;-81
2023/08/04 07:24:12;;;;;;;8.48;3.90;;;17.60;99.90;;;;;;5049041;28;20719;-81
2023/08/04 07:26:39;;;;;;;7.43;3.50;;;17.60;99.90;;;;;;5046024;28;20206;-79
2023/08/04 07:29:06;;;;;;;11.95;3.92;;;17.60;99.90;;;;;;5047288;28;20268;-81
2023/08/04 07:31:33;;;;;;;8.30;3.58;;;17.70;99.90;;;;;;5047859;28;20218;-81
2023/08/04 07:34:00;;;;;;;8.07;3.78;;;17.60;99.90;;;;;;5050735;28;20230;-81
2023/08/04 07:36:27;;;;;;;4.10;3.40;;;17.60;99.90;;;;;;5045050;28;20207;-81
2023/08/04 07:38:54;;;;;;;6.85;3.80;;;17.70;99.90;;;;;;5048447;28;20644;-82
2023/08/04 07:41:24;;;;;;;6.97;3.78;;;17.70;99.90;;;;;;5053896;28;20750;-80
2023/08/04 07:43:51;;;;;;;7.47;4.25;;;17.80;99.90;;;;;;5053172;28;20292;-83
2023/08/04 07:46:20;;;;;;;7.53;4.85;;;17.90;99.90;;;;;;5039699;28;20203;-81
2023/08/04 07:48:47;;;;;;;7.57;3.50;;;18.00;99.90;;;;;;5059771;28;20218;-80
2023/08/04 07:51:14;;;;;;;7.43;3.50;;;17.90;99.90;;;;;;5049340;28;20210;-81
2023/08/04 07:53:41;;;;;;;4.97;3.47;;;17.90;99.90;;;;;;5044770;28;20227;-81
2023/08/04 07:56:08;;;;;;;5.57;3.60;;;17.90;99.90;;;;;;5050460;28;20208;-81
2023/08/04 07:58:36;;;;;;;8.07;3.38;;;18.10;99.90;;;;;;5042866;28;20235;-80
2023/08/04 08:01:04;;;;;;;9.80;3.70;;;18.00;99.90;;;;;;5042532;28;20206;-81
2023/08/04 08:03:31;;;;;;;5.40;3.35;;;18.10;99.90;;;;;;5050219;28;20214;-80
2023/08/04 08:05:57;;;;;;;7.50;3.80;;;18.20;99.90;;;;;;5047255;28;20211;-80
2023/08/04 08:08:24;;;;;;;5.35;3.10;;;18.30;99.90;;;;;;5044553;28;20302;-80
2023/08/04 08:10:51;;;;;;;5.03;3.63;;;18.60;99.90;;;;;;5050866;28;20579;-81
2023/08/04 08:13:18;;;;;;;5.55;3.22;;;18.60;99.90;;;;;;5049973;28;20199;-84
2023/08/04 08:15:45;;;;;;;5.80;2.88;;;18.60;99.90;;;;;;5057234;28;20201;-81
2023/08/04 08:18:12;;;;;;;7.43;2.70;;;18.60;99.90;;;;;;5057150;28;20292;-80
2023/08/04 08:20:41;;;;;;;5.07;3.05;;;18.60;99.90;;;;;;5047793;28;20212;-81
2023/08/04 08:23:08;;;;;;;4.38;2.90;;;18.80;99.90;;;;;;5054320;28;20649;-81
2023/08/04 08:25:34;;;;;;;7.57;2.97;;;18.90;99.90;;;;;;5051052;28;20649;-81
2023/08/04 08:28:01;;;;;;;4.53;2.78;;;19.10;99.90;;;;;;5055304;28;20246;-81
2023/08/04 08:30:27;;;;;;;4.65;2.58;;;19.10;99.90;;;;;;5050150;28;20199;-80
2023/08/04 08:32:56;;;;;;;5.80;2.58;;;19.30;99.90;;;;;;5046110;28;20211;-81
2023/08/04 08:35:22;;;;;;;5.55;2.80;;;19.20;99.90;;;;;;5056921;28;20223;-80
2023/08/04 08:37:49;;;;;;;7.95;3.65;;;19.20;99.90;;;;;;5047918;28;20231;-81
2023/08/04 08:40:17;;;;;;;6.35;2.88;;;19.00;99.90;;;;;;5049466;28;20199;-81
2023/08/04 08:42:44;;;;;;;6.97;2.80;;;19.10;99.90;;;;;;5058124;28;20205;-80
2023/08/04 08:45:11;;;;;;;4.68;3.22;;;19.20;99.90;;;;;;5054181;28;20200;-81
2023/08/04 08:47:39;;;;;;;3.83;2.63;;;19.20;99.90;;;;;;5058865;28;20222;-79
2023/08/04 08:50:09;;;;;;;5.35;2.50;;;19.30;99.90;;;;;;5060623;28;20211;-80
2023/08/04 08:52:39;;;;;;;4.72;2.88;;;19.40;99.90;;;;;;5056187;28;20652;-79
2023/08/04 08:55:07;;;;;;;4.78;2.40;;;19.30;99.90;;;;;;5056819;28;20225;-81
2023/08/04 08:57:35;;;;;;;2.95;2.55;;;19.40;99.90;;;;;;5056849;28;20223;-80
2023/08/04 09:00:04;;;;;;;5.55;2.42;;;19.30;99.90;;;;;;5056690;28;20668;-81
2023/08/04 09:02:31;;;;;;;4.03;2.72;;;19.40;99.90;;;;;;5055522;28;20218;-80
2023/08/04 09:04:59;;;;;;;5.03;2.50;;;19.30;99.90;;;;;;5056571;28;20682;-79
2023/08/04 09:07:27;;;;;;;5.03;2.53;;;19.40;99.90;;;;;;5056163;28;20296;-79
2023/08/04 09:09:54;;;;;;;3.40;2.33;;;19.50;99.90;;;;;;5054160;28;20206;-79
2023/08/04 09:12:24;;;;;;;5.18;2.08;;;19.40;99.90;;;;;;5055082;28;20203;-80
2023/08/04 09:14:53;;;;;;;2.38;2.00;;;19.80;99.90;;;;;;5062285;28;20764;-79
2023/08/04 09:17:30;;;;;;;4.65;2.50;;;19.80;99.90;;;;;;5058435;28;20251;-80
2023/08/04 09:19:58;;;;;;;3.15;2.33;;;20.00;99.90;;;;;;5056052;28;20264;-80
2023/08/04 09:22:24;;;;;;;4.45;2.40;;;20.20;99.90;;;;;;5055133;28;20202;-80
2023/08/04 09:24:58;;;;;;;5.70;2.10;;;20.20;99.90;;;;;;5054971;28;20209;-80
2023/08/04 09:27:33;;;;;;;3.47;2.20;;;20.20;99.90;;;;;;5055713;28;20218;-80
2023/08/04 09:30:01;;;;;;;6.38;2.42;;;20.00;99.90;;;;;;5056564;28;20232;-80
2023/08/04 09:32:29;;;;;;;3.50;2.17;;;20.00;99.90;;;;;;5056122;28;20195;-80
2023/08/04 09:35:04;;;;;;;3.08;1.83;;;19.80;99.90;;;;;;5064476;28;20224;-80
2023/08/04 09:37:32;;;;;;;2.15;1.95;;;19.90;99.90;;;;;;5055584;28;20242;-80
2023/08/04 09:40:01;;;;;;;3.13;1.92;;;20.20;99.90;;;;;;5055984;28;20203;-80
2023/08/04 09:42:28;;;;;;;2.90;1.95;;;20.50;99.90;;;;;;5056614;28;20256;-79
2023/08/04 09:44:55;;;;;;;3.67;2.00;;;20.30;99.90;;;;;;5056123;28;20207;-79
2023/08/04 09:47:23;;;;;;;3.47;2.20;;;20.30;99.90;;;;;;5055704;28;20233;-79
2023/08/04 09:49:50;;;;;;;3.63;2.00;;;20.20;99.90;;;;;;5056660;28;20203;-79
2023/08/04 09:52:22;;;;;;;3.97;1.88;;;19.90;99.90;;;;;;5055555;28;20271;-79
2023/08/04 09:54:49;;;;;;;4.93;2.30;;;20.00;99.90;;;;;;5055369;28;20222;-79
2023/08/04 09:57:18;;;;;;;4.57;2.45;;;19.80;99.90;;;;;;5055175;28;20267;-80
2023/08/04 09:59:47;;;;;;;3.50;2.10;;;19.60;99.90;;;;;;5055520;28;20207;-80
2023/08/04 10:02:14;;;;;;;2.00;1.80;;;19.60;99.90;;;;;;5055491;28;20230;-80
2023/08/04 10:04:42;;;;;;;3.47;2.08;;;19.60;99.90;;;;;;5055878;28;20653;-79
2023/08/04 10:07:10;;;;;;;4.20;2.33;;;19.70;99.90;;;;;;5055742;28;20555;-80
2023/08/04 10:09:37;;;;;;;2.60;1.88;;;19.60;99.90;;;;;;5056112;28;20554;-80
2023/08/04 10:12:05;;;;;;;2.90;1.80;;;19.80;99.90;;;;;;5055524;28;20213;-80
2023/08/04 10:14:33;;;;;;;4.10;2.28;;;20.00;99.90;;;;;;5055511;28;20608;-80
2023/08/04 10:17:01;;;;;;;7.75;2.88;;;19.90;99.90;;;;;;5055487;28;20289;-80
2023/08/04 10:19:29;;;;;;;2.88;2.30;;;19.50;99.90;;;;;;5055595;28;20203;-80
2023/08/04 10:22:04;;;;;;;4.32;2.30;;;19.70;99.90;;;;;;5055795;28;20749;-80
2023/08/04 10:24:34;;;;;;;2.47;1.92;;;19.90;99.90;;;;;;5055694;28;20620;-79
2023/08/04 10:27:04;;;;;;;4.72;1.88;;;19.80;99.90;;;;;;5055000;28;20213;-79
2023/08/04 10:29:33;;;;;;;2.95;1.90;;;19.90;99.90;;;;;;5055585;28;20206;-79
2023/08/04 10:32:03;;;;;;;4.32;2.25;;;20.00;99.90;;;;;;5055351;28;20744;-80
2023/08/04 10:34:32;;;;;;;5.03;2.08;;;20.10;99.90;;;;;;5055826;28;20219;-80
2023/08/04 10:37:01;;;;;;;4.88;2.22;;;20.20;99.90;;;;;;5054997;28;20214;-80
2023/08/04 10:39:30;;;;;;;3.67;1.58;;;20.60;99.90;;;;;;5056052;28;20203;-80
2023/08/04 10:41:57;;;;;;;2.50;1.60;;;20.60;99.90;;;;;;5056059;28;20206;-79
2023/08/04 10:44:30;;;;;;;4.10;2.28;;;20.90;99.90;;;;;;5055527;28;20203;-80
2023/08/04 10:47:04;;;;;;;4.25;2.05;;;22.00;99.90;;;;;;5055539;28;20253;-80
2023/08/04 10:49:31;;;;;;;2.30;1.98;;;21.70;99.90;;;;;;5056742;28;20210;-80
2023/08/04 10:51:59;;;;;;;3.70;2.13;;;21.50;99.90;;;;;;5055866;28;20229;-80
2023/08/04 10:54:26;;;;;;;5.32;1.60;;;21.60;99.90;;;;;;5055806;28;20257;-80
2023/08/04 10:56:52;;;;;;;3.03;2.03;;;21.60;99.90;;;;;;5054916;28;20215;-80
2023/08/04 10:59:19;;;;;;;4.25;1.98;;;21.40;99.90;;;;;;5054910;28;20201;-80
2023/08/04 11:01:47;;;;;;;2.58;1.70;;;21.10;99.90;;;;;;5055331;28;20202;-80
2023/08/04 11:04:16;;;;;;;3.90;1.85;;;21.30;99.90;;;;;;5055469;28;20553;-80
2023/08/04 11:06:44;;;;;;;2.50;2.08;;;21.20;99.90;;;;;;5055053;28;20237;-81
2023/08/04 11:09:12;;;;;;;3.42;1.73;;;21.20;99.90;;;;;;5054738;28;20229;-80
2023/08/04 11:11:38;;;;;;;3.38;2.03;;;21.40;99.90;;;;;;5055488;28;20413;-80
2023/08/04 11:14:06;;;;;;;3.25;2.00;;;21.90;99.90;;;;;;5055092;28;20202;-80
2023/08/04 11:16:35;;;;;;;1.65;1.50;;;22.30;99.90;;;;;;5055415;28;20235;-80
2023/08/04 11:19:04;;;;;;;2.28;1.58;;;22.10;99.90;;;;;;5055155;28;20261;-80
2023/08/04 11:21:33;;;;;;;3.22;1.88;;;22.30;99.90;;;;;;5055398;28;20242;-80
2023/08/04 11:23:59;;;;;;;2.85;2.08;;;22.30;99.90;;;;;;5055413;28;20238;-79
2023/08/04 11:26:28;;;;;;;2.60;1.50;;;22.80;99.90;;;;;;5046817;28;20195;-80
2023/08/04 11:28:57;;;;;;;2.58;1.60;;;23.00;99.90;;;;;;5055039;28;20231;-80
2023/08/04 11:31:24;;;;;;;4.28;1.80;;;23.00;99.90;;;;;;5053708;28;20203;-79
2023/08/04 11:33:52;;;;;;;2.55;1.40;;;22.70;99.90;;;;;;5050081;28;20234;-80
2023/08/04 11:36:19;;;;;;;4.80;2.00;;;22.30;99.90;;;;;;5055792;28;20222;-80
2023/08/04 11:38:47;;;;;;;3.28;1.75;;;22.60;99.90;;;;;;5049263;28;20252;-80
2023/08/04 11:41:14;;;;;;;2.15;1.42;;;22.90;99.90;;;;;;5076992;28;20233;-80
2023/08/04 11:43:41;;;;;;;1.73;1.63;;;23.10;99.90;;;;;;5090994;22;20214;-81
2023/08/04 11:46:09;;;;;;;1.60;1.25;;;22.50;99.90;;;;;;5094278;28;20284;-82
2023/08/04 11:48:36;;;;;;;2.22;2.05;;;23.20;99.90;;;;;;5085433;28;20309;-81
2023/08/04 11:51:06;;;;;;;2.80;1.60;;;22.90;99.90;;;;;;5094470;28;20205;-81
2023/08/04 11:53:33;;;;;;;1.90;1.80;;;22.20;99.90;;;;;;5092264;28;20241;-80
2023/08/04 11:56:03;;;;;;;2.28;1.33;;;22.10;99.90;;;;;;5097380;28;20273;-80
2023/08/04 11:58:34;;;;;;;2.70;1.40;;;22.10;99.90;;;;;;5082143;28;20229;-80
2023/08/04 12:01:02;;;;;;;4.85;1.83;;;22.10;99.90;;;;;;5096665;28;20205;-81
2023/08/04 12:03:45;;;;;;;2.80;1.70;;;21.80;99.90;;;;;;5078027;28;20273;-80
2023/08/04 12:06:17;;;;;;;3.90;1.52;;;21.80;99.90;;;;;;5093865;28;20194;-80
2023/08/04 12:08:54;;;;;;;1.83;1.60;;;21.80;99.90;;;;;;5099234;28;20252;-81
2023/08/04 12:11:25;;;;;;;2.05;1.80;;;21.70;99.90;;;;;;5087748;28;20198;-81
2023/08/04 12:13:52;;;;;;;3.58;1.75;;;21.80;99.90;;;;;;5093508;28;20206;-81
2023/08/04 12:16:21;;;;;;;2.33;1.55;;;22.10;99.90;;;;;;5089026;28;20231;-81
2023/08/04 12:18:47;;;;;;;2.72;1.85;;;22.90;99.90;;;;;;5097037;28;20645;-81
2023/08/04 12:21:15;;;;;;;3.92;1.50;;;23.60;99.90;;;;;;5098505;28;20202;-81
2023/08/04 12:23:47;;;;;;;3.83;1.75;;;23.40;99.90;;;;;;5090799;28;20201;-81
2023/08/04 12:26:14;;;;;;;2.85;1.70;;;24.10;99.90;;;;;;5095064;28;20202;-80
2023/08/04 12:28:42;;;;;;;1.77;1.23;;;24.00;99.90;;;;;;5086297;28;20247;-81
2023/08/04 12:31:09;;;;;;;1.83;1.40;;;23.50;99.90;;;;;;5096546;28;20209;-81
2023/08/04 12:33:36;;;;;;;2.63;1.40;;;23.80;99.90;;;;;;5079450;28;20216;-79
2023/08/04 12:36:02;;;;;;;1.63;1.50;;;23.40;99.90;;;;;;5090765;28;20365;-81
2023/08/04 12:38:29;;;;;;;3.40;1.80;;;23.00;99.90;;;;;;5082234;28;20634;-80
2023/08/04 12:40:57;;;;;;;3.35;1.15;;;22.90;99.90;;;;;;5097147;28;20209;-80
2023/08/04 12:43:24;;;;;;;1.65;1.55;;;23.00;99.90;;;;;;5094504;28;20225;-80
2023/08/04 12:45:52;;;;;;;3.25;1.50;;;22.90;99.90;;;;;;5091329;28;20206;-81